Nbp Island — V2FH3 — position and weather

sailwx.info

Track history (hours):
 
Tides and Currents Weather Stations Pressure Air Temp Water Temp Dewpoint Dewpoint Depression Visibility Wind Speed Wind Dir Waves Ship Positions

Nbp Island

Last reported at 2015-May-29 02:30 UTC. Time now 2015-May-29 04:20 UTC.
Position N 35°58' W 005°11'.

Length 107 m; draft 8.3 m.

Type: Cargo ship. MMSI: 305674000.

Date/timePositionNaut miles runAvg speedWind from/ knotsBaromVisibWave heightAir tempDewpointWater temp
2015-May-29 02:30N 35°58' W 005°11'1010.3
2015-May-29 01:33N 35°58' W 005°23'155 9.0
2015-May-28 08:22N 36°16' W 008°34'8 9.8
2015-May-28 07:33N 36°22' W 008°41'2110.0
2015-May-28 05:26N 36°31' W 009°05'910.5
2015-May-28 04:33N 36°34' W 009°16'1110.6
2015-May-28 03:32N 36°41' W 009°26'1010.3
2015-May-28 02:33N 36°49' W 009°33'1110.8
2015-May-28 01:33N 36°60' W 009°37'1110.7
2015-May-28 00:33N 37°10' W 009°40'1010.4
2015-May-27 23:33N 37°20' W 009°43'1010.2
2015-May-27 22:33N 37°30' W 009°45'1110.6
2015-May-27 21:33N 37°41' W 009°48'1110.8
2015-May-27 20:33N 37°51' W 009°52'1110.5
2015-May-27 19:33N 38°01' W 009°55'1110.7
2015-May-27 18:33N 38°12' W 009°58'1110.7
2015-May-27 17:33N 38°22' W 010°01'1110.9
2015-May-27 16:33N 38°33' W 010°04'1010.5
2015-May-27 15:33N 38°43' W 010°07'1110.6
2015-May-27 14:33N 38°54' W 010°07'1110.7
2015-May-27 13:31N 39°05' W 010°07'1110.9
2015-May-27 12:33N 39°15' W 010°07'13410.3
2015-May-26 23:33N 41°29' W 010°07'1010.1
2015-May-26 22:33N 41°39' W 010°07'  
2015-May-24 09:26N 50°05' W 002°22'9 9.9
2015-May-24 08:33N 50°08' W 002°09'4812.0
2015-May-24 04:33N 50°20' W 000°57'1111.0
2015-May-24 03:33N 50°23' W 000°40'10 9.9
2015-May-24 02:33N 50°27' W 000°26'9 9.3
2015-May-24 01:33N 50°29' W 000°11'9 8.7
2015-May-24 00:33N 50°32' E 000°02'10 8.5
2015-May-23 23:25N 50°35' E 000°16'8 9.2
2015-May-23 22:33N 50°37' E 000°28'1010.3
2015-May-23 21:33N 50°42' E 000°42'1211.3
2015-May-23 20:32N 50°48' E 000°57'1111.0
2015-May-23 19:33N 50°55' E 001°11'1010.2
2015-May-23 18:33N 51°02' E 001°23'9 9.1
2015-May-23 17:33N 51°08' E 001°34'8 8.2
2015-May-23 16:34N 51°13' E 001°44'8 8.5
2015-May-23 15:34N 51°20' E 001°51'9 9.1
2015-May-23 14:33N 51°27' E 002°00'1110.8
2015-May-23 13:33N 51°36' E 002°10'1211.6
2015-May-23 12:33N 51°45' E 002°22'1211.9
2015-May-23 11:33N 51°55' E 002°33'1311.6
2015-May-23 10:25N 52°08' E 002°37'1010.9
2015-May-23 09:30N 52°17' E 002°42'1110.1
2015-May-23 08:26N 52°26' E 002°51'137 9.6
2015-May-22 18:11N 54°25' E 004°44'64 9.7
2015-May-22 11:33N 55°18' E 005°49'12 9.4
2015-May-22 10:19N 55°27' E 006°00'7 9.3
2015-May-22 09:33N 55°33' E 006°07'10 9.3
2015-May-22 08:30N 55°41' E 006°17'187 8.9
2015-May-21 11:30N 57°48' E 010°28'8 8.7
2015-May-21 10:33N 57°48' E 010°44'10 9.7
2015-May-21 09:33N 57°42' E 010°58'1010.1
2015-May-21 08:33N 57°35' E 011°12'10 9.8
2015-May-21 07:33N 57°29' E 011°25'10 9.9
2015-May-21 06:33N 57°19' E 011°31'10 9.8
2015-May-21 05:33N 57°10' E 011°38'10 9.9
2015-May-21 04:33N 57°01' E 011°45'10 9.8
2015-May-21 03:33N 56°52' E 011°50'9 9.3
2015-May-21 02:33N 56°42' E 011°50'125 9.6
2015-May-20 13:32N 54°41' E 010°57'10 9.8
2015-May-20 12:33N 54°36' E 011°11'1010.2
2015-May-20 11:33N 54°32' E 011°27'1010.3
2015-May-20 10:33N 54°28' E 011°43'10 9.8
2015-May-20 09:33N 54°27' E 011°60'26 8.8
2015-May-20 06:33N 54°44' E 012°34'10 9.3
2015-May-20 05:30N 54°47' E 012°50'4310.1
2015-May-20 01:13N 54°41' E 014°04'710.1
2015-May-20 00:33N 54°40' E 014°15'1010.0
2015-May-19 23:33N 54°39' E 014°32'14 9.9
2015-May-19 22:09N 54°41' E 014°56'7 9.9
2015-May-19 21:27N 54°42' E 015°08'1110.1
2015-May-19 20:24N 54°43' E 015°26'910.0
2015-May-19 19:28N 54°44' E 015°42'1010.0
2015-May-19 18:30N 54°46' E 015°59'69 9.8
2015-May-19 11:28N 54°57' E 017°57'9 9.9
2015-May-19 10:33N 54°57' E 018°13'1010.0
2015-May-19 09:34N 54°58' E 018°30'1110.0
2015-May-19 08:28N 54°57' E 018°49'910.1
2015-May-19 07:33N 54°52' E 019°03'1010.5
2015-May-19 06:33N 54°48' E 019°20'1010.1
2015-May-19 05:32N 54°45' E 019°37'  
Track history (hours):
 
Tides and Currents Weather Stations Pressure Air Temp Water Temp Dewpoint Dewpoint Depression Visibility Wind Speed Wind Dir Waves Ship Positions

Nbp Island

Last reported at 2015-May-29 02:30 UTC. Time now 2015-May-29 04:20 UTC.
Position N 35°58' W 005°11'.

Length 107 m; draft 8.3 m.

Type: Cargo ship. MMSI: 305674000.

Date/timePositionNaut miles runAvg speedWind from/ knotsBaromVisibWave heightAir tempDewpointWater temp
2015-May-29 02:30N 35°58' W 005°11'1010.3
2015-May-29 01:33N 35°58' W 005°23'155 9.0
2015-May-28 08:22N 36°16' W 008°34'8 9.8
2015-May-28 07:33N 36°22' W 008°41'2110.0
2015-May-28 05:26N 36°31' W 009°05'910.5
2015-May-28 04:33N 36°34' W 009°16'1110.6
2015-May-28 03:32N 36°41' W 009°26'1010.3
2015-May-28 02:33N 36°49' W 009°33'1110.8
2015-May-28 01:33N 36°60' W 009°37'1110.7
2015-May-28 00:33N 37°10' W 009°40'1010.4
2015-May-27 23:33N 37°20' W 009°43'1010.2
2015-May-27 22:33N 37°30' W 009°45'1110.6
2015-May-27 21:33N 37°41' W 009°48'1110.8
2015-May-27 20:33N 37°51' W 009°52'1110.5
2015-May-27 19:33N 38°01' W 009°55'1110.7
2015-May-27 18:33N 38°12' W 009°58'1110.7
2015-May-27 17:33N 38°22' W 010°01'1110.9
2015-May-27 16:33N 38°33' W 010°04'1010.5
2015-May-27 15:33N 38°43' W 010°07'1110.6
2015-May-27 14:33N 38°54' W 010°07'1110.7
2015-May-27 13:31N 39°05' W 010°07'1110.9
2015-May-27 12:33N 39°15' W 010°07'13410.3
2015-May-26 23:33N 41°29' W 010°07'1010.1
2015-May-26 22:33N 41°39' W 010°07'  
2015-May-24 09:26N 50°05' W 002°22'9 9.9
2015-May-24 08:33N 50°08' W 002°09'4812.0
2015-May-24 04:33N 50°20' W 000°57'1111.0
2015-May-24 03:33N 50°23' W 000°40'10 9.9
2015-May-24 02:33N 50°27' W 000°26'9 9.3
2015-May-24 01:33N 50°29' W 000°11'9 8.7
2015-May-24 00:33N 50°32' E 000°02'10 8.5
2015-May-23 23:25N 50°35' E 000°16'8 9.2
2015-May-23 22:33N 50°37' E 000°28'1010.3
2015-May-23 21:33N 50°42' E 000°42'1211.3
2015-May-23 20:32N 50°48' E 000°57'1111.0
2015-May-23 19:33N 50°55' E 001°11'1010.2
2015-May-23 18:33N 51°02' E 001°23'9 9.1
2015-May-23 17:33N 51°08' E 001°34'8 8.2
2015-May-23 16:34N 51°13' E 001°44'8 8.5
2015-May-23 15:34N 51°20' E 001°51'9 9.1
2015-May-23 14:33N 51°27' E 002°00'1110.8
2015-May-23 13:33N 51°36' E 002°10'1211.6
2015-May-23 12:33N 51°45' E 002°22'1211.9
2015-May-23 11:33N 51°55' E 002°33'1311.6
2015-May-23 10:25N 52°08' E 002°37'1010.9
2015-May-23 09:30N 52°17' E 002°42'1110.1
2015-May-23 08:26N 52°26' E 002°51'137 9.6
2015-May-22 18:11N 54°25' E 004°44'64 9.7
2015-May-22 11:33N 55°18' E 005°49'12 9.4
2015-May-22 10:19N 55°27' E 006°00'7 9.3
2015-May-22 09:33N 55°33' E 006°07'10 9.3
2015-May-22 08:30N 55°41' E 006°17'187 8.9
2015-May-21 11:30N 57°48' E 010°28'8 8.7
2015-May-21 10:33N 57°48' E 010°44'10 9.7
2015-May-21 09:33N 57°42' E 010°58'1010.1
2015-May-21 08:33N 57°35' E 011°12'10 9.8
2015-May-21 07:33N 57°29' E 011°25'10 9.9
2015-May-21 06:33N 57°19' E 011°31'10 9.8
2015-May-21 05:33N 57°10' E 011°38'10 9.9
2015-May-21 04:33N 57°01' E 011°45'10 9.8
2015-May-21 03:33N 56°52' E 011°50'9 9.3
2015-May-21 02:33N 56°42' E 011°50'125 9.6
2015-May-20 13:32N 54°41' E 010°57'10 9.8
2015-May-20 12:33N 54°36' E 011°11'1010.2
2015-May-20 11:33N 54°32' E 011°27'1010.3
2015-May-20 10:33N 54°28' E 011°43'10 9.8
2015-May-20 09:33N 54°27' E 011°60'26 8.8
2015-May-20 06:33N 54°44' E 012°34'10 9.3
2015-May-20 05:30N 54°47' E 012°50'4310.1
2015-May-20 01:13N 54°41' E 014°04'710.1
2015-May-20 00:33N 54°40' E 014°15'1010.0
2015-May-19 23:33N 54°39' E 014°32'14 9.9
2015-May-19 22:09N 54°41' E 014°56'7 9.9
2015-May-19 21:27N 54°42' E 015°08'1110.1
2015-May-19 20:24N 54°43' E 015°26'910.0
2015-May-19 19:28N 54°44' E 015°42'1010.0
2015-May-19 18:30N 54°46' E 015°59'69 9.8
2015-May-19 11:28N 54°57' E 017°57'9 9.9
2015-May-19 10:33N 54°57' E 018°13'1010.0
2015-May-19 09:34N 54°58' E 018°30'1110.0
2015-May-19 08:28N 54°57' E 018°49'910.1
2015-May-19 07:33N 54°52' E 019°03'1010.5
2015-May-19 06:33N 54°48' E 019°20'1010.1
2015-May-19 05:32N 54°45' E 019°37'  

Dump ship's entire track history